createdAt,value
2022-11-02T00:00:17.180Z,15.14
2022-11-02T00:02:46.830Z,15.25
2022-11-02T00:05:19.445Z,15.29
2022-11-02T00:07:49.241Z,15.32
2022-11-02T00:10:19.551Z,15.49
2022-11-02T00:12:50.313Z,15.50
2022-11-02T00:15:20.943Z,15.24
2022-11-02T00:17:53.096Z,15.36
2022-11-02T00:20:22.943Z,15.45
2022-11-02T00:22:55.447Z,15.36
2022-11-02T00:25:26.617Z,14.90
2022-11-02T00:27:57.000Z,14.99
2022-11-02T00:30:26.657Z,14.82
2022-11-02T00:32:57.067Z,14.34
2022-11-02T00:35:27.178Z,14.34
2022-11-02T00:37:57.252Z,14.26
2022-11-02T00:40:27.578Z,14.28
2022-11-02T00:42:57.487Z,14.30
2022-11-02T00:45:27.301Z,14.21
2022-11-02T00:47:57.509Z,14.36
2022-11-02T00:50:27.482Z,14.03
2022-11-02T00:52:57.408Z,14.17
2022-11-02T00:55:27.300Z,14.15
2022-11-02T00:57:58.784Z,14.31
2022-11-02T01:00:28.634Z,14.46
2022-11-02T01:03:02.875Z,14.47
2022-11-02T01:05:32.638Z,14.42
2022-11-02T01:08:02.698Z,14.36
2022-11-02T01:10:32.829Z,14.36
2022-11-02T01:13:02.905Z,14.48
2022-11-02T01:15:33.930Z,13.99
2022-11-02T01:18:03.970Z,13.96
2022-11-02T01:20:34.283Z,13.79
2022-11-02T01:23:04.029Z,13.79
2022-11-02T01:25:33.831Z,13.91
2022-11-02T01:28:04.133Z,13.72
2022-11-02T01:30:34.363Z,14.03
2022-11-02T01:33:08.086Z,13.67
2022-11-02T01:35:40.664Z,13.74
2022-11-02T01:38:12.064Z,13.86
2022-11-02T01:40:42.159Z,13.95
2022-11-02T01:43:26.647Z,14.04
2022-11-02T01:46:08.547Z,14.15
2022-11-02T01:48:50.162Z,14.09
2022-11-02T01:51:25.661Z,13.95
2022-11-02T01:53:58.461Z,14.02
2022-11-02T01:56:31.697Z,14.14
2022-11-02T01:59:04.525Z,14.12
2022-11-02T02:01:35.957Z,13.99
2022-11-02T02:04:06.390Z,13.70
2022-11-02T02:06:39.656Z,13.70
2022-11-02T02:09:11.177Z,13.27
2022-11-02T02:11:42.569Z,13.33
2022-11-02T02:14:15.303Z,13.21
2022-11-02T02:17:04.275Z,13.19
2022-11-02T02:19:54.358Z,13.26
2022-11-02T02:23:01.404Z,13.35
2022-11-02T02:25:59.214Z,13.46
2022-11-02T02:28:37.651Z,13.40
2022-11-02T02:31:18.981Z,13.47
2022-11-02T02:33:52.048Z,13.33
2022-11-02T02:36:42.587Z,13.27
2022-11-02T02:39:15.691Z,13.29
2022-11-02T02:41:48.638Z,13.35
2022-11-02T02:44:21.901Z,13.31
2022-11-02T02:47:00.612Z,13.41
2022-11-02T02:49:45.697Z,13.10
2022-11-02T02:52:17.077Z,12.96
2022-11-02T02:54:49.706Z,13.15
2022-11-02T02:57:23.245Z,13.04
2022-11-02T02:59:55.053Z,13.21
2022-11-02T03:02:30.825Z,13.06
2022-11-02T03:05:00.946Z,13.04
2022-11-02T03:07:34.019Z,13.17
2022-11-02T03:10:12.912Z,13.13
2022-11-02T03:13:07.044Z,13.10
2022-11-02T03:15:48.198Z,13.10
2022-11-02T03:18:23.977Z,13.02
2022-11-02T03:21:05.702Z,13.10
2022-11-02T03:23:44.488Z,13.07
2022-11-02T03:26:18.042Z,13.13
2022-11-02T03:29:04.186Z,13.16
2022-11-02T03:31:56.030Z,13.29
2022-11-02T03:34:31.735Z,12.95
2022-11-02T03:37:06.754Z,13.19
2022-11-02T03:39:39.533Z,13.03
2022-11-02T03:42:13.430Z,13.03
2022-11-02T03:44:44.526Z,13.14
2022-11-02T03:47:17.334Z,13.03
2022-11-02T03:49:50.068Z,13.12
2022-11-02T03:52:22.630Z,13.04
2022-11-02T03:55:07.027Z,12.95
2022-11-02T03:57:42.737Z,13.03
2022-11-02T04:00:19.940Z,12.97
2022-11-02T04:02:57.309Z,12.90
2022-11-02T04:05:36.084Z,12.85
2022-11-02T04:08:21.744Z,12.84
2022-11-02T04:11:17.229Z,12.81
2022-11-02T04:14:05.490Z,12.69
2022-11-02T04:16:37.166Z,12.85
2022-11-02T04:19:27.750Z,13.04
2022-11-02T04:22:16.899Z,12.99
2022-11-02T04:25:06.273Z,12.96
2022-11-02T04:27:36.810Z,13.05
2022-11-02T04:30:08.208Z,12.97
2022-11-02T04:32:59.865Z,12.99
2022-11-02T04:35:31.973Z,12.83
2022-11-02T04:38:21.289Z,12.83
2022-11-02T04:40:52.734Z,12.90
2022-11-02T04:43:22.762Z,12.95
2022-11-02T04:45:52.673Z,12.97
2022-11-02T04:48:22.395Z,13.02
2022-11-02T04:50:52.233Z,12.95
2022-11-02T04:53:22.285Z,13.16
2022-11-02T04:55:52.953Z,13.17
2022-11-02T04:58:23.175Z,13.12
2022-11-02T05:00:53.088Z,13.13
2022-11-02T05:03:23.067Z,13.01
2022-11-02T05:05:56.383Z,12.94
2022-11-02T05:08:26.795Z,13.03
2022-11-02T05:10:58.033Z,13.03
2022-11-02T05:13:28.888Z,13.08
2022-11-02T05:16:01.133Z,13.20
2022-11-02T05:18:31.528Z,13.27
2022-11-02T05:21:02.520Z,13.21
2022-11-02T05:23:32.589Z,13.30
2022-11-02T05:26:05.527Z,13.36
2022-11-02T05:28:35.744Z,13.40
2022-11-02T05:31:06.849Z,13.26
2022-11-02T05:33:37.473Z,13.18
2022-11-02T05:36:11.132Z,13.17
2022-11-02T05:38:42.070Z,13.38
2022-11-02T05:41:12.395Z,13.21
2022-11-02T05:43:42.897Z,13.16
2022-11-02T05:46:15.842Z,13.23
2022-11-02T05:48:45.602Z,13.04
2022-11-02T05:51:15.345Z,13.09
2022-11-02T05:53:45.477Z,13.00
2022-11-02T05:56:20.674Z,13.00
2022-11-02T05:58:48.142Z,12.87
2022-11-02T06:01:17.694Z,12.74
2022-11-02T06:03:53.165Z,12.75
2022-11-02T06:06:19.588Z,12.92
2022-11-02T06:08:49.884Z,12.69
2022-11-02T06:11:20.001Z,12.89
2022-11-02T06:13:51.866Z,12.74
2022-11-02T06:16:23.221Z,12.93
2022-11-02T06:18:52.930Z,12.73
2022-11-02T06:21:22.968Z,12.56
2022-11-02T06:23:52.864Z,12.69
2022-11-02T06:26:22.618Z,12.51
2022-11-02T06:28:52.669Z,12.75
2022-11-02T06:31:22.483Z,12.68
2022-11-02T06:33:52.231Z,12.92
2022-11-02T06:36:21.701Z,12.58
2022-11-02T06:38:51.465Z,12.43
2022-11-02T06:41:21.499Z,12.33
2022-11-02T06:43:52.217Z,12.31
2022-11-02T06:46:25.407Z,12.40
2022-11-02T06:48:54.419Z,12.34
2022-11-02T06:51:24.504Z,12.31
2022-11-02T06:53:54.512Z,12.27
2022-11-02T06:56:24.537Z,12.27
2022-11-02T06:58:54.981Z,12.33
2022-11-02T07:01:25.302Z,12.43
2022-11-02T07:03:55.385Z,12.46
2022-11-02T07:06:25.659Z,12.21
2022-11-02T07:08:56.707Z,12.46
2022-11-02T07:11:26.856Z,12.16
2022-11-02T07:13:57.286Z,12.33
2022-11-02T07:18:55.608Z,12.17
2022-11-02T07:21:25.968Z,12.17
2022-11-02T07:23:56.267Z,12.17
2022-11-02T07:26:27.978Z,12.31
2022-11-02T07:28:59.502Z,12.39
2022-11-02T07:31:29.925Z,12.28
2022-11-02T07:34:00.315Z,12.29
2022-11-02T07:36:30.493Z,12.29
2022-11-02T07:39:00.941Z,12.30
2022-11-02T07:41:31.153Z,12.51
2022-11-02T07:44:01.852Z,12.42
2022-11-02T07:46:39.633Z,12.33
2022-11-02T07:49:10.116Z,12.40
2022-11-02T07:51:40.220Z,12.44
2022-11-02T07:54:10.592Z,12.82
2022-11-02T07:56:40.731Z,12.59
2022-11-02T07:59:13.106Z,12.76
2022-11-02T08:01:43.461Z,12.94
2022-11-02T08:04:13.765Z,12.65
2022-11-02T08:06:44.061Z,12.75
2022-11-02T08:09:15.621Z,12.69
2022-11-02T08:11:45.875Z,12.77
2022-11-02T08:14:17.831Z,13.02
2022-11-02T08:16:48.387Z,13.03
2022-11-02T08:19:18.642Z,12.84
2022-11-02T08:21:48.818Z,12.97
2022-11-02T08:24:18.959Z,13.03
2022-11-02T08:26:52.346Z,12.99
2022-11-02T08:29:21.127Z,12.92
2022-11-02T08:31:51.447Z,13.26
2022-11-02T08:34:21.747Z,13.38
2022-11-02T08:36:52.224Z,13.39
2022-11-02T08:39:22.640Z,13.37
2022-11-02T08:41:52.918Z,13.55
2022-11-02T08:44:22.882Z,13.61
2022-11-02T08:49:23.405Z,13.53
2022-11-02T08:51:53.547Z,13.66
2022-11-02T08:54:23.532Z,13.81
2022-11-02T08:56:53.928Z,13.79
2022-11-02T08:59:24.300Z,14.05
2022-11-02T09:01:54.644Z,14.09
2022-11-02T09:04:25.167Z,14.09
2022-11-02T09:06:55.091Z,14.02
2022-11-02T09:09:25.267Z,14.32
2022-11-02T09:11:55.520Z,14.42
2022-11-02T09:14:25.998Z,14.73
2022-11-02T09:16:56.199Z,14.63
2022-11-02T09:19:26.777Z,14.63
2022-11-02T09:21:57.068Z,15.08
2022-11-02T09:24:27.031Z,14.42
2022-11-02T09:26:57.160Z,14.64
2022-11-02T09:29:27.439Z,14.70
2022-11-02T09:31:57.653Z,14.50
2022-11-02T09:34:27.701Z,14.57
2022-11-02T09:36:57.818Z,14.66
2022-11-02T09:39:28.002Z,14.80
2022-11-02T09:42:09.804Z,15.10
2022-11-02T09:44:45.383Z,15.39
2022-11-02T09:48:02.776Z,15.21
2022-11-02T09:49:49.900Z,15.41
2022-11-02T09:52:34.752Z,15.32
2022-11-02T09:55:10.817Z,15.32
2022-11-02T09:57:43.667Z,15.03
2022-11-02T10:00:18.696Z,14.80
2022-11-02T10:03:06.959Z,14.77
2022-11-02T10:06:03.772Z,14.80
2022-11-02T10:11:41.223Z,15.47
2022-11-02T10:14:17.366Z,15.18
2022-11-02T10:17:14.706Z,14.93
2022-11-02T10:19:48.235Z,15.33
2022-11-02T10:22:18.117Z,15.41
2022-11-02T10:24:49.767Z,15.32
2022-11-02T10:27:28.702Z,15.32
2022-11-02T10:30:07.570Z,15.62
2022-11-02T10:32:39.961Z,15.62
2022-11-02T10:35:51.372Z,15.48
2022-11-02T10:38:23.503Z,15.59
2022-11-02T10:41:14.881Z,15.49
2022-11-02T10:44:14.685Z,15.45
2022-11-02T10:47:00.043Z,15.55
2022-11-02T10:50:00.203Z,15.59
2022-11-02T10:52:38.518Z,15.29
2022-11-02T10:55:20.359Z,15.32
2022-11-02T10:57:51.821Z,15.23
2022-11-02T11:00:30.507Z,15.30
2022-11-02T11:03:09.361Z,15.34
2022-11-02T11:05:54.222Z,15.31
2022-11-02T11:08:38.568Z,15.23
2022-11-02T11:16:52.743Z,16.13
2022-11-02T11:19:38.544Z,16.25
2022-11-02T11:22:31.656Z,16.29
2022-11-02T11:25:27.107Z,16.30
2022-11-02T11:27:59.931Z,16.02
2022-11-02T11:30:59.045Z,15.56
2022-11-02T11:33:13.760Z,15.80
2022-11-02T11:35:46.997Z,16.26
2022-11-02T11:38:20.173Z,15.83
2022-11-02T11:40:54.996Z,15.89
2022-11-02T11:43:28.243Z,15.98
2022-11-02T11:46:06.570Z,16.26
2022-11-02T11:48:56.369Z,16.39
2022-11-02T11:51:35.671Z,16.52
2022-11-02T11:54:28.285Z,16.50
2022-11-02T11:57:25.674Z,16.65
2022-11-02T11:59:58.184Z,16.78
2022-11-02T12:02:31.111Z,16.99
2022-11-02T12:05:04.634Z,16.91
2022-11-02T12:10:01.289Z,16.95
2022-11-02T12:12:35.096Z,16.98
2022-11-02T12:15:38.896Z,16.93
2022-11-02T12:18:20.933Z,17.02
2022-11-02T12:21:15.981Z,16.93
2022-11-02T12:23:54.861Z,17.19
2022-11-02T12:26:33.853Z,17.16
2022-11-02T12:29:23.314Z,16.67
2022-11-02T12:32:05.285Z,16.68
2022-11-02T12:38:00.536Z,16.81
2022-11-02T12:40:55.898Z,16.84
2022-11-02T12:43:43.938Z,17.44
2022-11-02T12:46:38.355Z,17.35
2022-11-02T12:49:34.522Z,17.41
2022-11-02T12:52:05.511Z,17.14
2022-11-02T12:54:47.179Z,17.56
2022-11-02T12:57:20.334Z,17.54
2022-11-02T13:02:42.317Z,17.36
2022-11-02T13:05:15.094Z,17.24
2022-11-02T13:07:50.589Z,17.14
2022-11-02T13:10:25.896Z,17.14
2022-11-02T13:12:58.656Z,17.69
2022-11-02T13:15:31.896Z,17.15
2022-11-02T13:18:19.476Z,17.24
2022-11-02T13:20:54.990Z,17.23
2022-11-02T13:23:44.977Z,17.19
2022-11-02T13:26:24.510Z,17.43
2022-11-02T13:29:11.911Z,17.35
2022-11-02T13:31:50.443Z,17.25
2022-11-02T13:34:23.256Z,17.24
2022-11-02T13:36:53.154Z,17.51
2022-11-02T13:39:28.464Z,17.76
2022-11-02T13:42:03.918Z,17.43
2022-11-02T13:44:50.492Z,17.17
2022-11-02T13:47:23.253Z,17.30
2022-11-02T13:49:56.276Z,16.88
2022-11-02T13:52:34.447Z,16.99
2022-11-02T13:55:07.203Z,17.24
2022-11-02T13:57:45.995Z,17.06
2022-11-02T14:00:28.977Z,16.92
2022-11-02T14:03:02.018Z,17.13
2022-11-02T14:05:37.643Z,17.45
2022-11-02T14:08:10.123Z,17.48
2022-11-02T14:10:41.941Z,17.16
2022-11-02T14:13:17.545Z,17.08
2022-11-02T14:15:50.222Z,16.92
2022-11-02T14:18:29.186Z,17.01
2022-11-02T14:20:59.127Z,17.20
2022-11-02T14:23:37.206Z,16.89
2022-11-02T14:26:10.783Z,16.97
2022-11-02T14:28:44.823Z,17.00
2022-11-02T14:31:20.193Z,16.84
2022-11-02T14:34:16.577Z,17.00
2022-11-02T14:36:52.106Z,17.15
2022-11-02T14:39:27.677Z,17.05
2022-11-02T14:42:12.275Z,16.97
2022-11-02T14:45:00.022Z,16.91
2022-11-02T14:47:33.020Z,17.51
2022-11-02T14:50:14.629Z,17.10
2022-11-02T14:53:02.595Z,16.91
2022-11-02T14:55:38.327Z,16.53
2022-11-02T14:58:18.636Z,16.66
2022-11-02T15:00:54.130Z,16.37
2022-11-02T15:03:29.491Z,16.15
2022-11-02T15:06:14.142Z,16.28
2022-11-02T15:08:55.784Z,16.06
2022-11-02T15:11:44.862Z,16.26
2022-11-02T15:14:39.968Z,16.36
2022-11-02T15:17:12.759Z,16.17
2022-11-02T15:19:49.616Z,15.84
2022-11-02T15:22:37.238Z,15.77
2022-11-02T15:25:16.403Z,15.78
2022-11-02T15:27:46.984Z,15.74
2022-11-02T15:30:23.842Z,15.79
2022-11-02T15:33:03.695Z,15.53
2022-11-02T15:35:38.685Z,15.60
2022-11-02T15:38:17.393Z,15.44
2022-11-02T15:41:19.599Z,15.16
2022-11-02T15:44:16.367Z,15.43
2022-11-02T15:47:11.071Z,15.28
2022-11-02T15:50:04.613Z,15.01
2022-11-02T15:53:22.135Z,14.92
2022-11-02T15:56:01.726Z,14.78
2022-11-02T15:58:43.145Z,14.84
2022-11-02T16:01:24.851Z,14.73
2022-11-02T16:04:06.692Z,14.74
2022-11-02T16:06:46.755Z,14.54
2022-11-02T16:09:33.000Z,14.60
2022-11-02T16:12:13.813Z,14.60
2022-11-02T16:14:58.520Z,14.56
2022-11-02T16:17:30.513Z,14.46
2022-11-02T16:20:12.069Z,14.20
2022-11-02T16:22:43.411Z,14.27
2022-11-02T16:25:16.301Z,14.16
2022-11-02T16:27:46.050Z,14.28
2022-11-02T16:30:22.069Z,14.22
2022-11-02T16:32:54.868Z,14.16
2022-11-02T16:35:24.389Z,14.20
2022-11-02T16:37:54.665Z,13.94
2022-11-02T16:40:24.948Z,13.79
2022-11-02T16:42:55.236Z,13.98
2022-11-02T16:45:37.128Z,13.60
2022-11-02T16:48:18.340Z,13.85
2022-11-02T16:51:09.262Z,13.83
2022-11-02T16:53:38.090Z,13.71
2022-11-02T16:56:27.857Z,13.71
2022-11-02T16:59:01.088Z,13.52
2022-11-02T17:01:39.847Z,13.55
2022-11-02T17:04:24.378Z,13.63
2022-11-02T17:06:57.523Z,13.77
2022-11-02T17:09:30.731Z,13.53
2022-11-02T17:12:14.842Z,13.71
2022-11-02T17:14:47.695Z,13.49
2022-11-02T17:17:29.206Z,13.39
2022-11-02T17:20:16.735Z,13.34
2022-11-02T17:23:07.505Z,13.47
2022-11-02T17:25:41.547Z,13.53
2022-11-02T17:28:37.725Z,13.41
2022-11-02T17:31:10.549Z,13.51
2022-11-02T17:33:43.889Z,13.26
2022-11-02T17:36:13.957Z,13.41
2022-11-02T17:38:44.125Z,13.42
2022-11-02T17:41:34.250Z,13.46
2022-11-02T17:44:09.457Z,13.43
2022-11-02T17:46:41.680Z,13.43
2022-11-02T17:49:10.653Z,13.31
2022-11-02T17:51:40.668Z,13.27
2022-11-02T17:54:14.818Z,13.26
2022-11-02T17:56:44.620Z,13.24
2022-11-02T17:59:14.403Z,13.21
2022-11-02T18:01:44.375Z,13.24
2022-11-02T18:04:15.012Z,13.34
2022-11-02T18:06:44.489Z,13.18
2022-11-02T18:09:21.646Z,13.08
2022-11-02T18:11:51.214Z,13.16
2022-11-02T18:14:20.949Z,12.94
2022-11-02T18:16:52.128Z,12.92
2022-11-02T18:19:21.881Z,12.98
2022-11-02T18:21:51.647Z,13.00
2022-11-02T18:24:21.209Z,13.07
2022-11-02T18:26:50.978Z,12.86
2022-11-02T18:29:20.908Z,12.97
2022-11-02T18:31:50.649Z,12.92
2022-11-02T18:34:20.110Z,12.93
2022-11-02T18:36:49.595Z,12.95
2022-11-02T18:39:19.402Z,13.12
2022-11-02T18:41:49.593Z,13.12
2022-11-02T18:44:19.032Z,12.95
2022-11-02T18:46:49.409Z,12.86
2022-11-02T18:49:19.152Z,13.15
2022-11-02T18:51:49.389Z,12.99
2022-11-02T18:54:19.311Z,12.95
2022-11-02T18:56:49.071Z,13.04
2022-11-02T18:59:19.115Z,12.93
2022-11-02T19:01:49.117Z,13.07
2022-11-02T19:04:18.732Z,12.82
2022-11-02T19:07:06.425Z,13.03
2022-11-02T19:09:36.796Z,13.06
2022-11-02T19:12:14.290Z,12.87
2022-11-02T19:14:46.777Z,13.08
2022-11-02T19:17:16.697Z,12.84
2022-11-02T19:19:48.300Z,12.87
2022-11-02T19:22:25.948Z,13.00
2022-11-02T19:24:56.047Z,13.04
2022-11-02T19:27:26.263Z,12.78
2022-11-02T19:29:55.979Z,13.12
2022-11-02T19:32:25.602Z,12.84
2022-11-02T19:34:55.365Z,12.91
2022-11-02T19:37:25.975Z,12.83
2022-11-02T19:39:55.778Z,12.89
2022-11-02T19:42:25.582Z,12.91
2022-11-02T19:44:55.357Z,12.90
2022-11-02T19:47:26.469Z,12.72
2022-11-02T19:49:56.210Z,13.04
2022-11-02T19:52:26.034Z,12.71
2022-11-02T19:54:55.839Z,12.87
2022-11-02T19:57:29.353Z,12.90
2022-11-02T19:59:57.342Z,12.90
2022-11-02T20:02:26.818Z,12.83
2022-11-02T20:04:56.960Z,12.86
2022-11-02T20:07:26.801Z,12.82
2022-11-02T20:09:58.815Z,12.69
2022-11-02T20:12:27.890Z,12.69
2022-11-02T20:14:57.631Z,12.76
2022-11-02T20:17:38.126Z,12.77
2022-11-02T20:19:58.926Z,12.86
2022-11-02T20:22:28.759Z,12.79
2022-11-02T20:24:58.638Z,12.89
2022-11-02T20:27:28.446Z,12.73
2022-11-02T20:29:58.259Z,12.57
2022-11-02T20:32:27.987Z,12.75
2022-11-02T20:34:57.535Z,12.62
2022-11-02T20:37:27.432Z,12.65
2022-11-02T20:39:57.153Z,12.55
2022-11-02T20:42:27.049Z,12.53
2022-11-02T20:44:57.319Z,12.61
2022-11-02T20:47:27.160Z,12.61
2022-11-02T20:49:57.018Z,12.43
2022-11-02T20:52:26.714Z,12.49
2022-11-02T20:54:56.771Z,12.61
2022-11-02T20:57:28.376Z,12.52
2022-11-02T20:59:58.219Z,12.54
2022-11-02T21:02:30.705Z,12.50
2022-11-02T21:05:00.993Z,12.41
2022-11-02T21:07:30.840Z,12.40
2022-11-02T21:10:00.816Z,12.30
2022-11-02T21:12:48.929Z,12.19
2022-11-02T21:15:18.724Z,12.43
2022-11-02T21:17:48.756Z,12.41
2022-11-02T21:20:35.140Z,12.38
2022-11-02T21:22:51.574Z,12.48
2022-11-02T21:25:21.577Z,12.42
2022-11-02T21:27:52.266Z,12.36
2022-11-02T21:30:22.124Z,12.09
2022-11-02T21:32:53.026Z,12.34
2022-11-02T21:35:22.906Z,12.32
2022-11-02T21:38:00.080Z,12.43
2022-11-02T21:40:28.120Z,12.44
2022-11-02T21:42:58.008Z,12.40
2022-11-02T21:45:27.814Z,12.33
2022-11-02T21:47:57.913Z,12.34
2022-11-02T21:50:27.387Z,12.27
2022-11-02T21:52:57.148Z,12.43
2022-11-02T21:55:26.975Z,12.41
2022-11-02T21:57:56.825Z,12.32
2022-11-02T22:00:28.449Z,12.36
2022-11-02T22:02:58.198Z,12.33
2022-11-02T22:05:29.691Z,12.33
2022-11-02T22:08:17.383Z,12.46
2022-11-02T22:10:47.196Z,12.38
2022-11-02T22:13:35.290Z,12.34
2022-11-02T22:16:18.035Z,12.44
2022-11-02T22:18:49.514Z,12.33
2022-11-02T22:21:19.802Z,12.36
2022-11-02T22:23:51.680Z,12.36
2022-11-02T22:26:23.597Z,12.35
2022-11-02T22:28:54.176Z,12.43
2022-11-02T22:31:26.673Z,12.32
2022-11-02T22:33:58.813Z,12.48
2022-11-02T22:36:31.110Z,12.46
2022-11-02T22:39:02.211Z,12.40
2022-11-02T22:41:34.559Z,12.33
2022-11-02T22:44:09.340Z,12.37
2022-11-02T22:46:41.976Z,12.43
2022-11-02T22:49:13.834Z,12.38
2022-11-02T22:51:46.743Z,12.49
2022-11-02T22:54:18.840Z,12.57
2022-11-02T22:56:49.773Z,12.59
2022-11-02T22:59:20.800Z,12.48
2022-11-02T23:01:51.408Z,12.58
2022-11-02T23:04:21.144Z,12.52
2022-11-02T23:06:50.894Z,12.51
2022-11-02T23:09:21.558Z,12.47
2022-11-02T23:11:51.313Z,12.50
2022-11-02T23:14:21.155Z,12.52
2022-11-02T23:16:50.930Z,12.39
2022-11-02T23:19:30.915Z,12.42
2022-11-02T23:22:18.248Z,12.65
2022-11-02T23:25:11.820Z,12.51
2022-11-02T23:28:04.832Z,12.49
2022-11-02T23:30:56.001Z,12.41
2022-11-02T23:33:31.320Z,12.50
2022-11-02T23:36:15.167Z,12.38
2022-11-02T23:39:04.668Z,12.38
2022-11-02T23:41:37.949Z,12.52
2022-11-02T23:44:14.783Z,12.51
2022-11-02T23:46:46.510Z,12.63
2022-11-02T23:49:18.980Z,12.40
2022-11-02T23:52:06.486Z,12.53
2022-11-02T23:54:54.062Z,12.44
2022-11-02T23:57:25.434Z,12.49
2022-11-02T23:59:55.189Z,12.48
